sensor_id;sensor_type;location;lat;lon;timestamp;P1;durP1;ratioP1;P2;durP2;ratioP2
64242;SDS011;50573;51.512;5.386;2023-03-23T00:01:55;7.35;;;3.67;;
64242;SDS011;50573;51.512;5.386;2023-03-23T00:11:59;5.70;;;3.30;;
64242;SDS011;50573;51.512;5.386;2023-03-23T00:22:05;10.02;;;3.50;;
64242;SDS011;50573;51.512;5.386;2023-03-23T00:32:09;8.60;;;3.85;;
64242;SDS011;50573;51.512;5.386;2023-03-23T00:42:14;5.75;;;3.50;;
64242;SDS011;50573;51.512;5.386;2023-03-23T00:52:18;7.63;;;4.03;;
64242;SDS011;50573;51.512;5.386;2023-03-23T01:02:23;5.50;;;4.07;;
64242;SDS011;50573;51.512;5.386;2023-03-23T01:12:27;7.93;;;4.45;;
64242;SDS011;50573;51.512;5.386;2023-03-23T01:22:31;6.60;;;4.37;;
64242;SDS011;50573;51.512;5.386;2023-03-23T01:32:35;7.53;;;4.63;;
64242;SDS011;50573;51.512;5.386;2023-03-23T01:42:37;7.40;;;4.55;;
64242;SDS011;50573;51.512;5.386;2023-03-23T01:52:45;6.13;;;4.30;;
64242;SDS011;50573;51.512;5.386;2023-03-23T02:02:48;6.47;;;3.97;;
64242;SDS011;50573;51.512;5.386;2023-03-23T02:12:55;6.82;;;4.05;;
64242;SDS011;50573;51.512;5.386;2023-03-23T02:23:07;7.82;;;4.00;;
64242;SDS011;50573;51.512;5.386;2023-03-23T02:43:53;9.48;;;3.78;;
64242;SDS011;50573;51.512;5.386;2023-03-23T02:53:59;6.90;;;3.63;;
64242;SDS011;50573;51.512;5.386;2023-03-23T03:04:03;8.25;;;3.33;;
64242;SDS011;50573;51.512;5.386;2023-03-23T03:14:11;5.03;;;3.63;;
64242;SDS011;50573;51.512;5.386;2023-03-23T03:24:19;6.13;;;3.78;;
64242;SDS011;50573;51.512;5.386;2023-03-23T03:34:26;4.55;;;3.60;;
64242;SDS011;50573;51.512;5.386;2023-03-23T03:44:33;7.85;;;3.42;;
64242;SDS011;50573;51.512;5.386;2023-03-23T03:54:36;7.93;;;3.55;;
64242;SDS011;50573;51.512;5.386;2023-03-23T04:04:41;10.90;;;2.92;;
64242;SDS011;50573;51.512;5.386;2023-03-23T04:14:45;8.10;;;2.75;;
64242;SDS011;50573;51.512;5.386;2023-03-23T04:24:47;8.98;;;2.70;;
64242;SDS011;50573;51.512;5.386;2023-03-23T04:34:53;15.57;;;2.85;;
64242;SDS011;50573;51.512;5.386;2023-03-23T04:45:00;5.07;;;2.20;;
64242;SDS011;50573;51.512;5.386;2023-03-23T04:55:10;10.63;;;2.85;;
64242;SDS011;50573;51.512;5.386;2023-03-23T05:05:16;9.15;;;2.53;;
64242;SDS011;50573;51.512;5.386;2023-03-23T05:15:20;8.35;;;2.10;;
64242;SDS011;50573;51.512;5.386;2023-03-23T05:25:22;9.20;;;2.03;;
64242;SDS011;50573;51.512;5.386;2023-03-23T05:35:33;8.60;;;2.50;;
64242;SDS011;50573;51.512;5.386;2023-03-23T05:45:36;9.60;;;2.60;;
64242;SDS011;50573;51.512;5.386;2023-03-23T05:55:40;17.73;;;3.58;;
64242;SDS011;50573;51.512;5.386;2023-03-23T06:05:56;13.23;;;3.22;;
64242;SDS011;50573;51.512;5.386;2023-03-23T06:16:09;13.32;;;2.50;;
64242;SDS011;50573;51.512;5.386;2023-03-23T06:26:21;13.10;;;3.10;;
64242;SDS011;50573;51.512;5.386;2023-03-23T06:36:33;11.30;;;2.80;;
64242;SDS011;50573;51.512;5.386;2023-03-23T06:46:48;13.18;;;3.03;;
64242;SDS011;50573;51.512;5.386;2023-03-23T06:57:00;17.75;;;3.03;;
64242;SDS011;50573;51.512;5.386;2023-03-23T07:07:02;12.07;;;2.60;;
64242;SDS011;50573;51.512;5.386;2023-03-23T07:17:12;10.50;;;2.60;;
64242;SDS011;50573;51.512;5.386;2023-03-23T07:27:27;14.10;;;3.60;;
64242;SDS011;50573;51.512;5.386;2023-03-23T07:37:34;10.90;;;2.92;;
64242;SDS011;50573;51.512;5.386;2023-03-23T07:47:36;8.80;;;1.80;;
64242;SDS011;50573;51.512;5.386;2023-03-23T07:57:40;8.05;;;2.78;;
64242;SDS011;50573;51.512;5.386;2023-03-23T08:07:42;3.95;;;1.52;;
64242;SDS011;50573;51.512;5.386;2023-03-23T08:18:10;5.45;;;1.40;;
64242;SDS011;50573;51.512;5.386;2023-03-23T08:28:36;5.90;;;1.08;;
64242;SDS011;50573;51.512;5.386;2023-03-23T08:39:06;3.78;;;1.10;;
64242;SDS011;50573;51.512;5.386;2023-03-23T08:49:34;6.10;;;1.40;;
64242;SDS011;50573;51.512;5.386;2023-03-23T08:59:49;4.70;;;1.42;;
64242;SDS011;50573;51.512;5.386;2023-03-23T09:10:09;7.95;;;2.25;;
64242;SDS011;50573;51.512;5.386;2023-03-23T09:20:14;7.63;;;1.30;;
64242;SDS011;50573;51.512;5.386;2023-03-23T09:30:20;7.88;;;1.50;;
64242;SDS011;50573;51.512;5.386;2023-03-23T09:40:24;9.80;;;2.05;;
64242;SDS011;50573;51.512;5.386;2023-03-23T09:50:31;6.43;;;2.10;;
64242;SDS011;50573;51.512;5.386;2023-03-23T10:00:37;7.60;;;2.33;;
64242;SDS011;50573;51.512;5.386;2023-03-23T10:10:46;6.68;;;1.75;;
64242;SDS011;50573;51.512;5.386;2023-03-23T10:20:57;6.43;;;1.85;;
64242;SDS011;50573;51.512;5.386;2023-03-23T10:31:00;9.10;;;2.40;;
64242;SDS011;50573;51.512;5.386;2023-03-23T10:41:06;6.25;;;2.20;;
64242;SDS011;50573;51.512;5.386;2023-03-23T10:51:12;9.55;;;2.67;;
64242;SDS011;50573;51.512;5.386;2023-03-23T11:01:19;9.50;;;2.08;;
64242;SDS011;50573;51.512;5.386;2023-03-23T11:11:31;8.73;;;2.13;;
64242;SDS011;50573;51.512;5.386;2023-03-23T11:21:35;10.35;;;2.80;;
64242;SDS011;50573;51.512;5.386;2023-03-23T11:31:39;6.53;;;1.77;;
64242;SDS011;50573;51.512;5.386;2023-03-23T11:41:44;7.47;;;2.00;;
64242;SDS011;50573;51.512;5.386;2023-03-23T11:51:47;7.88;;;2.38;;
64242;SDS011;50573;51.512;5.386;2023-03-23T12:01:56;6.78;;;2.25;;
64242;SDS011;50573;51.512;5.386;2023-03-23T12:12:07;8.07;;;2.03;;
64242;SDS011;50573;51.512;5.386;2023-03-23T12:22:22;6.97;;;2.47;;
64242;SDS011;50573;51.512;5.386;2023-03-23T12:32:37;9.48;;;3.10;;
64242;SDS011;50573;51.512;5.386;2023-03-23T12:42:51;10.68;;;2.28;;
64242;SDS011;50573;51.512;5.386;2023-03-23T12:52:59;10.32;;;2.75;;
64242;SDS011;50573;51.512;5.386;2023-03-23T13:03:09;11.13;;;2.25;;
64242;SDS011;50573;51.512;5.386;2023-03-23T13:13:19;11.05;;;2.80;;
64242;SDS011;50573;51.512;5.386;2023-03-23T13:23:25;10.20;;;2.13;;
64242;SDS011;50573;51.512;5.386;2023-03-23T13:33:31;11.40;;;3.35;;
64242;SDS011;50573;51.512;5.386;2023-03-23T13:43:38;12.73;;;3.30;;
64242;SDS011;50573;51.512;5.386;2023-03-23T13:53:43;10.25;;;2.63;;
64242;SDS011;50573;51.512;5.386;2023-03-23T14:03:48;12.18;;;3.10;;
64242;SDS011;50573;51.512;5.386;2023-03-23T14:13:58;12.98;;;3.53;;
64242;SDS011;50573;51.512;5.386;2023-03-23T14:24:04;9.77;;;2.85;;
64242;SDS011;50573;51.512;5.386;2023-03-23T14:34:12;13.07;;;3.58;;
64242;SDS011;50573;51.512;5.386;2023-03-23T14:44:18;11.63;;;3.45;;
64242;SDS011;50573;51.512;5.386;2023-03-23T14:54:25;15.90;;;4.07;;
64242;SDS011;50573;51.512;5.386;2023-03-23T15:04:29;12.77;;;3.22;;
64242;SDS011;50573;51.512;5.386;2023-03-23T15:14:35;13.73;;;3.03;;
64242;SDS011;50573;51.512;5.386;2023-03-23T15:24:46;8.30;;;2.47;;
64242;SDS011;50573;51.512;5.386;2023-03-23T15:34:49;9.75;;;3.25;;
64242;SDS011;50573;51.512;5.386;2023-03-23T15:44:56;8.80;;;2.70;;
64242;SDS011;50573;51.512;5.386;2023-03-23T15:55:00;12.23;;;3.15;;
64242;SDS011;50573;51.512;5.386;2023-03-23T16:05:04;12.63;;;2.33;;
64242;SDS011;50573;51.512;5.386;2023-03-23T16:15:07;11.40;;;2.33;;
64242;SDS011;50573;51.512;5.386;2023-03-23T16:25:12;10.50;;;2.60;;
64242;SDS011;50573;51.512;5.386;2023-03-23T16:35:16;10.50;;;2.83;;
64242;SDS011;50573;51.512;5.386;2023-03-23T16:45:21;9.13;;;3.28;;
64242;SDS011;50573;51.512;5.386;2023-03-23T16:55:25;13.85;;;3.63;;
64242;SDS011;50573;51.512;5.386;2023-03-23T17:05:30;11.90;;;4.97;;
64242;SDS011;50573;51.512;5.386;2023-03-23T17:15:34;10.88;;;3.80;;
64242;SDS011;50573;51.512;5.386;2023-03-23T17:25:40;13.95;;;4.00;;
64242;SDS011;50573;51.512;5.386;2023-03-23T17:35:44;11.73;;;3.92;;
64242;SDS011;50573;51.512;5.386;2023-03-23T17:45:49;20.10;;;3.63;;
64242;SDS011;50573;51.512;5.386;2023-03-23T17:55:53;11.77;;;4.05;;
64242;SDS011;50573;51.512;5.386;2023-03-23T18:05:58;10.37;;;4.33;;
64242;SDS011;50573;51.512;5.386;2023-03-23T18:16:04;11.23;;;3.88;;
64242;SDS011;50573;51.512;5.386;2023-03-23T18:26:10;12.73;;;3.58;;
64242;SDS011;50573;51.512;5.386;2023-03-23T18:36:15;10.75;;;3.78;;
64242;SDS011;50573;51.512;5.386;2023-03-23T18:46:22;14.50;;;3.80;;
64242;SDS011;50573;51.512;5.386;2023-03-23T19:06:29;17.20;;;4.97;;
64242;SDS011;50573;51.512;5.386;2023-03-23T19:16:34;13.50;;;3.65;;
64242;SDS011;50573;51.512;5.386;2023-03-23T19:26:40;15.05;;;3.80;;
64242;SDS011;50573;51.512;5.386;2023-03-23T19:36:44;9.25;;;3.63;;
64242;SDS011;50573;51.512;5.386;2023-03-23T19:46:57;12.80;;;3.40;;
64242;SDS011;50573;51.512;5.386;2023-03-23T20:07:05;13.15;;;3.67;;
64242;SDS011;50573;51.512;5.386;2023-03-23T20:17:09;12.13;;;4.30;;
64242;SDS011;50573;51.512;5.386;2023-03-23T20:27:14;13.77;;;4.10;;
64242;SDS011;50573;51.512;5.386;2023-03-23T20:37:18;18.92;;;4.82;;
64242;SDS011;50573;51.512;5.386;2023-03-23T20:47:22;11.70;;;3.75;;
64242;SDS011;50573;51.512;5.386;2023-03-23T20:57:25;12.43;;;4.13;;
64242;SDS011;50573;51.512;5.386;2023-03-23T21:07:30;8.38;;;3.33;;
64242;SDS011;50573;51.512;5.386;2023-03-23T21:17:33;9.00;;;2.95;;
64242;SDS011;50573;51.512;5.386;2023-03-23T21:27:38;13.93;;;3.83;;
64242;SDS011;50573;51.512;5.386;2023-03-23T21:37:41;12.82;;;4.05;;
64242;SDS011;50573;51.512;5.386;2023-03-23T21:47:46;8.50;;;3.33;;
64242;SDS011;50573;51.512;5.386;2023-03-23T22:07:54;9.13;;;3.42;;
64242;SDS011;50573;51.512;5.386;2023-03-23T22:17:57;9.30;;;3.38;;
64242;SDS011;50573;51.512;5.386;2023-03-23T22:28:02;11.55;;;3.42;;
64242;SDS011;50573;51.512;5.386;2023-03-23T22:38:06;7.25;;;3.30;;
64242;SDS011;50573;51.512;5.386;2023-03-23T22:48:11;12.80;;;3.60;;
64242;SDS011;50573;51.512;5.386;2023-03-23T22:58:14;5.90;;;2.80;;
64242;SDS011;50573;51.512;5.386;2023-03-23T23:08:19;7.17;;;3.13;;
64242;SDS011;50573;51.512;5.386;2023-03-23T23:18:23;8.57;;;3.10;;
64242;SDS011;50573;51.512;5.386;2023-03-23T23:28:28;11.40;;;3.60;;
64242;SDS011;50573;51.512;5.386;2023-03-23T23:38:31;5.68;;;2.50;;
64242;SDS011;50573;51.512;5.386;2023-03-23T23:48:36;6.05;;;3.20;;
64242;SDS011;50573;51.512;5.386;2023-03-23T23:58:39;8.95;;;3.42;;
